< Typhoon 201218 2012 Season Typhoon 201220 >
Typhoon 201219 (MALIKSI)
General InformationTrack Information on Google MapsDetailed Wind InformationAccess Analytics MapList of All Images || NewsDisaster Info.WeblogTrackbackTyphoon FrontTwiphoonTyphoon Now!Typhoon ImaginationResourceGoogle EarthGE AnimationAtom FeedGeoJSON
Detalied Best Track (Time Zone = UTC)
Year Month Day Hour Lat. Long. Pressure (hPa) Wind (kt) Class Image Chart
2012 9 29 12 12.8 151.0 1006 0 2 Image Chart
2012 9 29 18 13.5 150.6 1004 0 2 Image Chart
2012 9 30 00 13.9 150.0 1004 0 2 Image Chart
2012 9 30 06 14.3 149.6 1002 0 2 Image Chart
2012 9 30 12 16.0 148.9 1002 0 2 Image Chart
2012 9 30 18 16.4 147.7 1000 0 2 Image Chart
2012 10 1 00 17.1 146.9 1002 0 2 Image Chart
2012 10 1 06 17.9 146.2 998 35 3 Image Chart
2012 10 1 12 19.3 145.3 996 40 3 Image Chart
2012 10 1 18 19.5 144.2 994 40 3 Image Chart
2012 10 2 00 20.3 143.6 992 40 3 Image Chart
2012 10 2 06 20.9 142.6 992 40 3 Image Chart
2012 10 2 12 21.3 142.3 992 40 3 Image Chart
2012 10 2 18 22.4 141.4 990 45 3 Image Chart
2012 10 3 00 24.5 140.9 985 50 4 Image Chart
2012 10 3 03 25.4 141.0 985 50 4 Image Chart
2012 10 3 06 26.0 141.6 985 50 4 Image Chart
2012 10 3 09 27.1 142.0 985 50 4 Image Chart
2012 10 3 12 28.4 142.0 985 50 4 Image Chart
2012 10 3 18 30.9 141.8 985 50 4 Image Chart
2012 10 4 00 34.1 144.0 985 50 4 Image Chart
2012 10 4 06 37.0 146.0 982 0 6 Image Chart
2012 10 4 12 40.0 149.5 976 0 6 Image Chart
2012 10 4 18 42.5 152.8 972 0 6 Image Chart
2012 10 5 00 43.8 155.2 968 0 6 Image Chart
2012 10 5 06 44.9 157.1 964 0 6 Image Chart
2012 10 5 12 45.9 159.2 960 0 6 Image Chart
2012 10 5 18 45.8 162.2 960 0 6 Image Chart
2012 10 6 00 45.7 167.0 968 0 6 Image Chart
2012 10 6 06 45.3 172.1 972 0 6 Image Chart
2012 10 6 12 45.1 177.3 976 0 6 Image Chart
2012 10 6 18 46.7 182.7 978 0 6 Image Chart
Japan Meteorological Agency Best Track Data | Correction Date : 2012-10-26
< Typhoon 201218 2012 Season Typhoon 201220 >

Help